createdAt,value
2022-10-04T00:00:25.449Z,6.20
2022-10-04T00:02:58.850Z,6.18
2022-10-04T00:05:26.127Z,6.05
2022-10-04T00:07:57.047Z,6.01
2022-10-04T00:10:30.265Z,6.11
2022-10-04T00:13:00.000Z,6.12
2022-10-04T00:15:27.745Z,6.18
2022-10-04T00:18:12.470Z,6.13
2022-10-04T00:20:51.127Z,5.93
2022-10-04T00:23:23.757Z,5.92
2022-10-04T00:25:51.306Z,5.95
2022-10-04T00:28:20.596Z,5.88
2022-10-04T00:31:07.199Z,5.89
2022-10-04T00:33:45.038Z,5.93
2022-10-04T00:36:26.734Z,5.84
2022-10-04T00:39:05.273Z,5.85
2022-10-04T00:41:37.911Z,5.85
2022-10-04T00:44:06.474Z,5.69
2022-10-04T00:46:33.495Z,5.81
2022-10-04T00:49:03.473Z,5.76
2022-10-04T00:51:41.009Z,5.76
2022-10-04T00:54:18.631Z,5.71
2022-10-04T00:56:51.214Z,5.55
2022-10-04T00:59:26.878Z,5.64
2022-10-04T01:01:59.197Z,5.62
2022-10-04T01:04:38.329Z,5.51
2022-10-04T01:07:06.209Z,5.34
2022-10-04T01:09:34.937Z,5.42
2022-10-04T01:12:10.798Z,5.58
2022-10-04T01:14:57.795Z,5.48
2022-10-04T01:17:24.416Z,5.42
2022-10-04T01:19:53.356Z,5.40
2022-10-04T01:22:34.230Z,5.24
2022-10-04T01:25:00.982Z,5.29
2022-10-04T01:27:37.733Z,5.39
2022-10-04T01:30:09.227Z,5.47
2022-10-04T01:32:37.654Z,5.46
2022-10-04T01:35:05.216Z,5.47
2022-10-04T01:37:31.860Z,5.54
2022-10-04T01:39:58.869Z,5.31
2022-10-04T01:42:31.722Z,5.20
2022-10-04T01:45:02.999Z,5.24
2022-10-04T01:47:50.565Z,5.17
2022-10-04T01:50:21.559Z,5.09
2022-10-04T01:52:51.364Z,5.11
2022-10-04T01:55:24.698Z,5.06
2022-10-04T01:58:14.483Z,5.19
2022-10-04T02:00:51.600Z,5.15
2022-10-04T02:03:22.432Z,5.15
2022-10-04T02:05:54.560Z,4.97
2022-10-04T02:08:27.843Z,4.96
2022-10-04T02:10:55.039Z,4.92
2022-10-04T02:13:22.293Z,4.97
2022-10-04T02:15:49.614Z,4.78
2022-10-04T02:18:18.793Z,5.03
2022-10-04T02:20:45.979Z,5.07
2022-10-04T02:23:12.920Z,5.02
2022-10-04T02:25:39.784Z,4.94
2022-10-04T02:28:11.004Z,4.97
2022-10-04T02:30:43.014Z,4.90
2022-10-04T02:33:10.548Z,4.86
2022-10-04T02:35:47.108Z,4.91
2022-10-04T02:38:15.664Z,4.88
2022-10-04T02:41:17.611Z,4.81
2022-10-04T02:44:21.020Z,4.81
2022-10-04T02:46:52.744Z,4.66
2022-10-04T02:49:35.061Z,4.77
2022-10-04T02:52:19.789Z,4.75
2022-10-04T02:54:52.814Z,4.85
2022-10-04T02:57:21.649Z,4.74
2022-10-04T02:59:48.573Z,4.75
2022-10-04T03:02:41.681Z,4.48
2022-10-04T03:05:11.254Z,4.38
2022-10-04T03:07:39.473Z,4.41
2022-10-04T03:10:12.501Z,4.38
2022-10-04T03:12:42.050Z,4.36
2022-10-04T03:15:13.172Z,4.33
2022-10-04T03:17:43.207Z,4.39
2022-10-04T03:20:14.697Z,4.48
2022-10-04T03:22:46.929Z,4.49
2022-10-04T03:25:26.490Z,4.43
2022-10-04T03:27:54.273Z,4.53
2022-10-04T03:30:20.913Z,4.55
2022-10-04T03:32:48.672Z,4.53
2022-10-04T03:35:29.004Z,4.54
2022-10-04T03:37:57.337Z,4.45
2022-10-04T03:40:29.952Z,4.38
2022-10-04T03:42:58.040Z,4.34
2022-10-04T03:45:25.583Z,4.18
2022-10-04T03:47:53.336Z,4.06
2022-10-04T03:50:26.597Z,4.17
2022-10-04T03:53:09.229Z,4.24
2022-10-04T03:55:43.380Z,4.25
2022-10-04T03:58:18.215Z,4.27
2022-10-04T04:01:07.199Z,4.27
2022-10-04T04:03:44.875Z,4.33
2022-10-04T04:06:15.946Z,4.15
2022-10-04T04:08:43.253Z,4.35
2022-10-04T04:11:18.932Z,4.39
2022-10-04T04:14:01.049Z,4.31
2022-10-04T04:16:28.503Z,4.27
2022-10-04T04:18:58.773Z,4.15
2022-10-04T04:21:25.932Z,4.13
2022-10-04T04:23:59.133Z,4.08
2022-10-04T04:26:36.799Z,4.02
2022-10-04T04:29:18.567Z,3.93
2022-10-04T04:32:09.278Z,3.93
2022-10-04T04:34:50.324Z,3.94
2022-10-04T04:37:16.945Z,4.03
2022-10-04T04:39:49.358Z,4.05
2022-10-04T04:42:36.471Z,4.02
2022-10-04T04:45:16.822Z,4.04
2022-10-04T04:47:45.461Z,3.91
2022-10-04T04:50:15.418Z,3.88
2022-10-04T04:52:52.733Z,3.95
2022-10-04T04:55:28.313Z,3.98
2022-10-04T04:57:57.081Z,4.10
2022-10-04T05:00:29.567Z,4.12
2022-10-04T05:02:58.994Z,4.15
2022-10-04T05:05:28.101Z,3.98
2022-10-04T05:08:23.781Z,4.03
2022-10-04T05:11:06.353Z,3.94
2022-10-04T05:13:52.236Z,3.87
2022-10-04T05:16:51.098Z,3.74
2022-10-04T05:19:37.807Z,3.72
2022-10-04T05:22:16.946Z,3.67
2022-10-04T05:24:45.972Z,3.64
2022-10-04T05:27:18.310Z,3.82
2022-10-04T05:30:07.416Z,3.71
2022-10-04T05:32:41.079Z,3.63
2022-10-04T05:35:19.097Z,3.70
2022-10-04T05:37:57.684Z,3.73
2022-10-04T05:40:34.051Z,3.85
2022-10-04T05:43:00.744Z,3.77
2022-10-04T05:45:31.360Z,3.72
2022-10-04T05:48:00.842Z,3.78
2022-10-04T05:50:30.424Z,3.78
2022-10-04T05:53:24.468Z,3.82
2022-10-04T05:55:54.074Z,3.84
2022-10-04T05:58:41.501Z,3.93
2022-10-04T06:01:15.310Z,3.93
2022-10-04T06:04:09.625Z,3.92
2022-10-04T06:06:36.224Z,3.91
2022-10-04T06:09:14.440Z,3.95
2022-10-04T06:11:45.738Z,3.94
2022-10-04T06:14:38.829Z,3.88
2022-10-04T06:17:46.446Z,3.78
2022-10-04T06:20:35.000Z,3.82
2022-10-04T06:23:03.582Z,3.86
2022-10-04T06:25:49.961Z,3.86
2022-10-04T06:28:39.263Z,3.82
2022-10-04T06:31:31.783Z,3.83
2022-10-04T06:34:22.858Z,3.89
2022-10-04T06:37:09.713Z,4.01
2022-10-04T06:40:06.241Z,4.05
2022-10-04T06:43:11.193Z,4.14
2022-10-04T06:45:40.711Z,4.12
2022-10-04T06:48:28.907Z,4.14
2022-10-04T06:51:03.826Z,4.27
2022-10-04T06:53:53.025Z,4.41
2022-10-04T06:56:28.719Z,4.46
2022-10-04T06:59:07.764Z,4.55
2022-10-04T07:01:36.321Z,4.54
2022-10-04T07:04:18.129Z,4.67
2022-10-04T07:07:22.978Z,4.73
2022-10-04T07:10:09.383Z,4.75
2022-10-04T07:12:40.737Z,4.86
2022-10-04T07:15:17.546Z,4.93
2022-10-04T07:17:45.980Z,4.94
2022-10-04T07:20:25.854Z,5.18
2022-10-04T07:23:06.960Z,5.34
2022-10-04T07:25:49.458Z,5.45
2022-10-04T07:28:38.404Z,5.52
2022-10-04T07:31:11.889Z,5.73
2022-10-04T07:33:50.305Z,5.89
2022-10-04T07:36:46.683Z,5.98
2022-10-04T07:39:17.530Z,6.12
2022-10-04T07:41:55.934Z,6.22
2022-10-04T07:44:35.668Z,6.33
2022-10-04T07:47:19.285Z,6.39
2022-10-04T07:49:46.470Z,6.55
2022-10-04T07:52:31.741Z,6.91
2022-10-04T07:54:58.352Z,6.95
2022-10-04T07:57:31.165Z,7.07
2022-10-04T08:00:10.406Z,7.16
2022-10-04T08:02:58.901Z,7.29
2022-10-04T08:05:36.374Z,7.42
2022-10-04T08:08:40.637Z,7.47
2022-10-04T08:12:09.150Z,7.67
2022-10-04T08:14:44.527Z,7.79
2022-10-04T08:17:55.869Z,7.93
2022-10-04T08:20:25.340Z,8.07
2022-10-04T08:23:09.449Z,8.23
2022-10-04T08:25:44.582Z,8.33
2022-10-04T08:28:44.193Z,8.53
2022-10-04T08:31:34.877Z,8.70
2022-10-04T08:34:18.304Z,8.79
2022-10-04T08:37:06.713Z,9.01
2022-10-04T08:39:51.552Z,9.09
2022-10-04T08:42:25.805Z,9.23
2022-10-04T08:45:25.502Z,9.41
2022-10-04T08:48:01.548Z,9.47
2022-10-04T08:50:38.499Z,9.62
2022-10-04T08:53:15.551Z,9.73
2022-10-04T08:56:00.828Z,9.85
2022-10-04T08:58:52.178Z,10.07
2022-10-04T09:01:39.324Z,10.31
2022-10-04T09:04:33.858Z,10.61
2022-10-04T09:07:21.792Z,10.73
2022-10-04T09:10:25.099Z,10.91
2022-10-04T09:13:05.906Z,11.14
2022-10-04T09:15:42.782Z,11.30
2022-10-04T09:18:12.115Z,11.49
2022-10-04T09:20:44.721Z,11.63
2022-10-04T09:23:33.780Z,11.90
2022-10-04T09:26:13.402Z,12.16
2022-10-04T09:29:14.429Z,12.32
2022-10-04T09:31:48.173Z,12.53
2022-10-04T09:34:26.180Z,12.70
2022-10-04T09:37:20.457Z,12.83
2022-10-04T09:39:59.191Z,12.93
2022-10-04T09:42:43.728Z,13.12
2022-10-04T09:45:35.993Z,13.35
2022-10-04T09:48:25.755Z,13.33
2022-10-04T09:51:08.407Z,13.27
2022-10-04T09:53:44.473Z,13.40
2022-10-04T09:56:52.961Z,13.63
2022-10-04T09:59:32.464Z,13.97
2022-10-04T10:02:28.984Z,14.14
2022-10-04T10:05:27.093Z,14.32
2022-10-04T10:08:32.365Z,14.38
2022-10-04T10:11:21.596Z,14.64
2022-10-04T10:14:08.346Z,14.60
2022-10-04T10:16:46.508Z,14.54
2022-10-04T10:19:31.816Z,14.47
2022-10-04T10:22:07.277Z,14.64
2022-10-04T10:24:36.606Z,14.66
2022-10-04T10:27:40.481Z,14.68
2022-10-04T10:30:28.239Z,14.97
2022-10-04T10:33:05.201Z,15.03
2022-10-04T10:35:34.701Z,15.31
2022-10-04T10:38:19.580Z,15.59
2022-10-04T10:41:04.422Z,15.70
2022-10-04T10:44:02.987Z,15.55
2022-10-04T10:46:45.096Z,15.41
2022-10-04T10:49:59.827Z,15.61
2022-10-04T10:52:47.877Z,15.62
2022-10-04T10:55:27.002Z,15.91
2022-10-04T10:58:17.960Z,16.19
2022-10-04T11:01:06.402Z,16.15
2022-10-04T11:03:57.817Z,16.25
2022-10-04T11:06:53.477Z,15.99
2022-10-04T11:09:29.004Z,16.44
2022-10-04T11:12:22.912Z,16.77
2022-10-04T11:15:27.042Z,16.46
2022-10-04T11:18:24.420Z,16.80
2022-10-04T11:21:05.997Z,17.09
2022-10-04T11:24:00.668Z,17.26
2022-10-04T11:27:04.730Z,17.10
2022-10-04T11:29:31.287Z,17.04
2022-10-04T11:32:00.620Z,16.90
2022-10-04T11:34:58.085Z,16.99
2022-10-04T11:37:36.452Z,17.40
2022-10-04T11:40:21.032Z,17.60
2022-10-04T11:43:14.264Z,17.54
2022-10-04T11:46:14.285Z,17.41
2022-10-04T11:48:55.765Z,17.78
2022-10-04T11:52:02.033Z,18.13
2022-10-04T11:54:50.452Z,18.02
2022-10-04T11:57:32.200Z,18.32
2022-10-04T12:00:11.794Z,18.40
2022-10-04T12:03:15.879Z,18.55
2022-10-04T12:06:05.506Z,18.81
2022-10-04T12:08:41.442Z,18.88
2022-10-04T12:11:52.065Z,19.23
2022-10-04T12:14:23.328Z,19.18
2022-10-04T12:17:08.691Z,19.40
2022-10-04T12:20:02.405Z,19.57
2022-10-04T12:22:49.817Z,19.78
2022-10-04T12:25:29.540Z,19.88
2022-10-04T12:28:27.578Z,19.72
2022-10-04T12:31:33.483Z,19.63
2022-10-04T12:34:06.049Z,19.89
2022-10-04T12:36:59.233Z,20.08
2022-10-04T12:39:39.412Z,19.81
2022-10-04T12:42:25.816Z,19.66
2022-10-04T12:44:57.545Z,19.94
2022-10-04T12:47:30.501Z,20.22
2022-10-04T12:50:15.993Z,20.43
2022-10-04T12:53:21.638Z,20.19
2022-10-04T12:56:08.040Z,19.72
2022-10-04T12:59:03.329Z,19.84
2022-10-04T13:01:48.171Z,20.28
2022-10-04T13:04:26.520Z,20.14
2022-10-04T13:06:59.743Z,20.26
2022-10-04T13:09:59.737Z,20.52
2022-10-04T13:12:41.172Z,21.04
2022-10-04T13:17:23.327Z,21.10
2022-10-04T13:18:32.942Z,21.12
2022-10-04T13:21:02.535Z,21.20
2022-10-04T13:23:47.671Z,21.69
2022-10-04T13:26:59.924Z,21.40
2022-10-04T13:29:44.218Z,21.70
2022-10-04T13:32:16.485Z,21.76
2022-10-04T13:34:52.104Z,21.90
2022-10-04T13:37:21.961Z,21.97
2022-10-04T13:40:11.439Z,21.96
2022-10-04T13:42:48.886Z,22.19
2022-10-04T13:45:35.464Z,22.47
2022-10-04T13:48:02.056Z,22.72
2022-10-04T13:50:42.749Z,22.79
2022-10-04T13:53:33.917Z,22.91
2022-10-04T13:56:26.027Z,22.63
2022-10-04T13:58:52.580Z,22.80
2022-10-04T14:01:44.757Z,22.76
2022-10-04T14:04:49.444Z,23.06
2022-10-04T14:07:34.616Z,23.17
2022-10-04T14:10:17.405Z,23.33
2022-10-04T14:12:49.654Z,23.41
2022-10-04T14:15:47.101Z,23.52
2022-10-04T14:18:52.810Z,23.68
2022-10-04T14:21:52.974Z,23.73
2022-10-04T14:24:22.245Z,23.71
2022-10-04T14:27:03.792Z,23.79
2022-10-04T14:29:56.380Z,23.78
2022-10-04T14:32:41.521Z,23.62
2022-10-04T14:35:35.910Z,23.86
2022-10-04T14:38:08.552Z,23.73
2022-10-04T14:40:53.533Z,23.58
2022-10-04T14:43:35.133Z,23.29
2022-10-04T14:46:18.428Z,23.46
2022-10-04T14:48:45.030Z,23.62
2022-10-04T14:51:15.541Z,23.68
2022-10-04T14:54:11.438Z,23.77
2022-10-04T14:57:19.415Z,23.69
2022-10-04T14:59:54.630Z,24.00
2022-10-04T15:02:31.817Z,23.61
2022-10-04T15:05:31.086Z,23.03
2022-10-04T15:08:24.381Z,22.96
2022-10-04T15:10:58.784Z,23.16
2022-10-04T15:13:35.238Z,23.34
2022-10-04T15:16:21.011Z,23.16
2022-10-04T15:18:52.555Z,22.63
2022-10-04T15:21:32.521Z,22.30
2022-10-04T15:24:20.506Z,21.78
2022-10-04T15:27:14.598Z,21.74
2022-10-04T15:30:08.884Z,21.46
2022-10-04T15:32:53.627Z,21.00
2022-10-04T15:35:40.702Z,20.73
2022-10-04T15:38:34.477Z,20.59
2022-10-04T15:41:52.069Z,20.32
2022-10-04T15:44:52.241Z,19.93
2022-10-04T15:47:31.067Z,19.61
2022-10-04T15:50:23.581Z,19.53
2022-10-04T15:53:20.356Z,19.40
2022-10-04T15:56:06.863Z,19.16
2022-10-04T15:58:50.599Z,19.02
2022-10-04T16:01:59.126Z,18.87
2022-10-04T16:04:37.897Z,18.58
2022-10-04T16:07:07.310Z,18.51
2022-10-04T16:09:42.309Z,18.31
2022-10-04T16:12:23.274Z,18.24
2022-10-04T16:15:14.049Z,18.21
2022-10-04T16:17:45.173Z,18.03
2022-10-04T16:20:26.420Z,17.90
2022-10-04T16:23:26.623Z,17.72
2022-10-04T16:25:55.721Z,17.55
2022-10-04T16:28:49.815Z,17.50
2022-10-04T16:32:05.173Z,17.33
2022-10-04T16:34:45.389Z,17.03
2022-10-04T16:37:23.912Z,16.90
2022-10-04T16:39:59.296Z,16.78
2022-10-04T16:42:57.386Z,16.62
2022-10-04T16:45:49.571Z,16.36
2022-10-04T16:48:34.712Z,16.16
2022-10-04T16:51:16.185Z,16.06
2022-10-04T16:53:54.831Z,15.90
2022-10-04T16:56:23.093Z,15.80
2022-10-04T16:59:12.936Z,15.63
2022-10-04T17:01:54.366Z,15.48
2022-10-04T17:04:36.959Z,15.31
2022-10-04T17:07:14.573Z,15.17
2022-10-04T17:09:41.152Z,15.00
2022-10-04T17:12:46.823Z,14.73
2022-10-04T17:15:38.361Z,14.73
2022-10-04T17:18:30.537Z,14.59
2022-10-04T17:20:59.916Z,14.41
2022-10-04T17:23:56.251Z,14.28
2022-10-04T17:26:42.063Z,14.24
2022-10-04T17:29:16.122Z,14.13
2022-10-04T17:31:59.405Z,13.97
2022-10-04T17:34:28.674Z,13.87
2022-10-04T17:37:24.665Z,13.77
2022-10-04T17:40:08.965Z,13.65
2022-10-04T17:42:54.392Z,13.56
2022-10-04T17:45:29.858Z,13.35
2022-10-04T17:48:48.352Z,13.29
2022-10-04T17:51:52.834Z,13.28
2022-10-04T17:55:07.282Z,13.21
2022-10-04T17:57:49.261Z,13.04
2022-10-04T18:00:26.469Z,13.00
2022-10-04T18:02:55.597Z,12.97
2022-10-04T18:05:27.141Z,12.89
2022-10-04T18:08:01.314Z,12.77
2022-10-04T18:10:38.717Z,12.72
2022-10-04T18:13:26.105Z,12.54
2022-10-04T18:16:04.601Z,12.51
2022-10-04T18:18:39.660Z,12.36
2022-10-04T18:21:19.686Z,12.37
2022-10-04T18:23:56.454Z,12.30
2022-10-04T18:26:24.938Z,12.16
2022-10-04T18:28:54.292Z,12.06
2022-10-04T18:31:35.419Z,11.99
2022-10-04T18:34:16.612Z,11.85
2022-10-04T18:36:51.853Z,11.67
2022-10-04T18:39:21.999Z,11.72
2022-10-04T18:42:11.912Z,11.69
2022-10-04T18:44:47.893Z,11.64
2022-10-04T18:47:21.332Z,11.62
2022-10-04T18:49:49.738Z,11.59
2022-10-04T18:52:26.206Z,11.52
2022-10-04T18:55:08.716Z,11.51
2022-10-04T18:58:02.794Z,11.46
2022-10-04T19:00:56.640Z,11.29
2022-10-04T19:03:31.119Z,11.28
2022-10-04T19:06:13.787Z,11.27
2022-10-04T19:09:16.876Z,11.26
2022-10-04T19:11:59.055Z,11.13
2022-10-04T19:14:33.143Z,11.14
2022-10-04T19:17:21.650Z,11.13
2022-10-04T19:20:03.323Z,11.00
2022-10-04T19:22:42.825Z,10.95
2022-10-04T19:25:21.548Z,10.90
2022-10-04T19:27:58.040Z,10.77
2022-10-04T19:30:26.241Z,10.75
2022-10-04T19:33:11.839Z,10.73
2022-10-04T19:35:59.254Z,10.66
2022-10-04T19:38:55.617Z,10.60
2022-10-04T19:41:28.377Z,10.57
2022-10-04T19:43:59.599Z,10.51
2022-10-04T19:46:56.133Z,10.36
2022-10-04T19:49:36.581Z,10.18
2022-10-04T19:52:26.209Z,10.19
2022-10-04T19:55:12.701Z,10.13
2022-10-04T19:57:39.398Z,10.10
2022-10-04T20:00:12.770Z,10.05
2022-10-04T20:02:48.163Z,9.90
2022-10-04T20:05:20.174Z,9.93
2022-10-04T20:07:51.545Z,9.88
2022-10-04T20:10:22.558Z,9.89
2022-10-04T20:13:07.845Z,9.81
2022-10-04T20:15:35.422Z,9.76
2022-10-04T20:18:03.312Z,9.63
2022-10-04T20:20:39.134Z,9.59
2022-10-04T20:23:11.955Z,9.52
2022-10-04T20:25:45.612Z,9.38
2022-10-04T20:28:27.615Z,9.29
2022-10-04T20:30:58.714Z,9.32
2022-10-04T20:33:34.096Z,9.35
2022-10-04T20:36:02.471Z,9.39
2022-10-04T20:38:51.668Z,9.29
2022-10-04T20:41:50.490Z,9.33
2022-10-04T20:44:44.755Z,9.18
2022-10-04T20:47:34.474Z,9.04
2022-10-04T20:50:01.821Z,9.05
2022-10-04T20:52:32.929Z,9.14
2022-10-04T20:55:03.723Z,9.14
2022-10-04T20:57:30.561Z,9.09
2022-10-04T20:59:57.957Z,8.93
2022-10-04T21:02:28.464Z,9.01
2022-10-04T21:04:57.643Z,8.95
2022-10-04T21:07:26.455Z,8.91
2022-10-04T21:09:54.672Z,8.93
2022-10-04T21:12:36.091Z,8.95
2022-10-04T21:15:17.951Z,8.88
2022-10-04T21:18:06.126Z,8.80
2022-10-04T21:20:42.565Z,8.83
2022-10-04T21:23:17.283Z,8.78
2022-10-04T21:25:43.977Z,8.73
2022-10-04T21:28:24.881Z,8.67
2022-10-04T21:30:51.576Z,8.50
2022-10-04T21:33:18.236Z,8.46
2022-10-04T21:35:44.856Z,8.52
2022-10-04T21:38:11.585Z,8.50
2022-10-04T21:40:38.182Z,8.51
2022-10-04T21:43:05.850Z,8.47
2022-10-04T21:45:32.491Z,8.46
2022-10-04T21:47:59.139Z,8.48
2022-10-04T21:50:25.882Z,8.45
2022-10-04T21:52:52.486Z,8.45
2022-10-04T21:55:19.427Z,8.32
2022-10-04T21:57:46.065Z,8.26
2022-10-04T22:00:13.118Z,8.21
2022-10-04T22:02:39.848Z,8.12
2022-10-04T22:05:06.638Z,8.01
2022-10-04T22:07:33.266Z,8.14
2022-10-04T22:09:59.916Z,8.00
2022-10-04T22:12:26.931Z,8.05
2022-10-04T22:14:53.533Z,7.91
2022-10-04T22:17:20.157Z,7.87
2022-10-04T22:19:46.869Z,7.84
2022-10-04T22:22:17.130Z,7.92
2022-10-04T22:24:45.279Z,7.76
2022-10-04T22:27:16.660Z,7.61
2022-10-04T22:29:43.576Z,7.59
2022-10-04T22:32:24.689Z,7.49
2022-10-04T22:34:58.669Z,7.59
2022-10-04T22:37:25.478Z,7.61
2022-10-04T22:39:52.877Z,7.55
2022-10-04T22:42:20.937Z,7.44
2022-10-04T22:44:47.678Z,7.34
2022-10-04T22:47:15.385Z,7.25
2022-10-04T22:49:44.840Z,7.18
2022-10-04T22:52:15.474Z,7.20
2022-10-04T22:54:45.313Z,7.26
2022-10-04T22:57:14.396Z,7.29
2022-10-04T22:59:44.150Z,7.27
2022-10-04T23:02:20.064Z,7.34
2022-10-04T23:04:53.324Z,7.24
2022-10-04T23:07:20.179Z,7.16
2022-10-04T23:09:47.361Z,7.14
2022-10-04T23:12:14.034Z,7.17
2022-10-04T23:14:41.748Z,7.16
2022-10-04T23:17:24.703Z,7.09
2022-10-04T23:20:18.549Z,7.00
2022-10-04T23:22:47.217Z,7.06
2022-10-04T23:25:17.275Z,6.99
2022-10-04T23:27:45.386Z,7.02
2022-10-04T23:30:18.371Z,7.09
2022-10-04T23:32:46.740Z,6.96
2022-10-04T23:35:19.872Z,6.96
2022-10-04T23:37:47.361Z,6.93
2022-10-04T23:40:16.809Z,6.83
2022-10-04T23:42:43.652Z,6.74
2022-10-04T23:45:17.350Z,6.74
2022-10-04T23:47:44.737Z,6.60
2022-10-04T23:50:20.178Z,6.55
2022-10-04T23:52:46.947Z,6.48
2022-10-04T23:55:35.541Z,6.36
2022-10-04T23:58:02.286Z,6.44
